sensor_id;sensor_type;location;lat;lon;timestamp;pressure;altitude;pressure_sealevel;temperature;humidity
9721;BME280;4899;42.644;23.366;2023-03-14T00:00:06;94455.47;;;2.47;64.06
9721;BME280;4899;42.644;23.366;2023-03-14T00:02:33;94461.28;;;2.42;63.20
9721;BME280;4899;42.644;23.366;2023-03-14T00:04:59;94455.44;;;2.37;63.04
9721;BME280;4899;42.644;23.366;2023-03-14T00:07:24;94449.84;;;2.35;63.33
9721;BME280;4899;42.644;23.366;2023-03-14T00:09:50;94429.25;;;2.21;64.39
9721;BME280;4899;42.644;23.366;2023-03-14T00:12:16;94437.41;;;2.23;64.22
9721;BME280;4899;42.644;23.366;2023-03-14T00:14:42;94423.91;;;2.12;65.16
9721;BME280;4899;42.644;23.366;2023-03-14T00:17:08;94427.97;;;2.13;65.63
9721;BME280;4899;42.644;23.366;2023-03-14T00:19:34;94424.41;;;2.09;65.33
9721;BME280;4899;42.644;23.366;2023-03-14T00:22:00;94418.31;;;2.10;65.04
9721;BME280;4899;42.644;23.366;2023-03-14T00:24:26;94421.34;;;2.07;66.67
9721;BME280;4899;42.644;23.366;2023-03-14T00:26:51;94387.81;;;1.95;66.44
9721;BME280;4899;42.644;23.366;2023-03-14T00:29:17;94402.06;;;2.06;66.47
9721;BME280;4899;42.644;23.366;2023-03-14T00:31:42;94396.47;;;2.04;66.77
9721;BME280;4899;42.644;23.366;2023-03-14T00:34:08;94399.28;;;2.08;66.82
9721;BME280;4899;42.644;23.366;2023-03-14T00:36:33;94384.03;;;2.03;69.22
9721;BME280;4899;42.644;23.366;2023-03-14T00:38:59;94379.22;;;2.06;69.62
9721;BME280;4899;42.644;23.366;2023-03-14T00:41:25;94381.78;;;2.11;68.79
9721;BME280;4899;42.644;23.366;2023-03-14T00:43:51;94379.25;;;2.11;68.01
9721;BME280;4899;42.644;23.366;2023-03-14T00:46:17;94383.31;;;2.12;68.99
9721;BME280;4899;42.644;23.366;2023-03-14T00:48:45;94379.25;;;2.11;68.99
9721;BME280;4899;42.644;23.366;2023-03-14T00:51:11;94374.91;;;2.07;69.16
9721;BME280;4899;42.644;23.366;2023-03-14T00:53:39;94371.63;;;2.01;69.46
9721;BME280;4899;42.644;23.366;2023-03-14T00:56:06;94389.84;;;1.98;69.20
9721;BME280;4899;42.644;23.366;2023-03-14T00:58:32;94374.63;;;1.93;68.97
9721;BME280;4899;42.644;23.366;2023-03-14T01:00:58;94379.66;;;1.83;71.22
9721;BME280;4899;42.644;23.366;2023-03-14T01:03:23;94375.28;;;1.73;71.74
9721;BME280;4899;42.644;23.366;2023-03-14T01:05:49;94376.25;;;1.57;73.08
9721;BME280;4899;42.644;23.366;2023-03-14T01:08:15;94377.44;;;1.44;74.50
9721;BME280;4899;42.644;23.366;2023-03-14T01:10:41;94366.75;;;1.32;75.77
9721;BME280;4899;42.644;23.366;2023-03-14T01:13:08;94366.00;;;1.37;75.36
9721;BME280;4899;42.644;23.366;2023-03-14T01:15:34;94373.34;;;1.38;74.47
9721;BME280;4899;42.644;23.366;2023-03-14T01:18:00;94371.56;;;1.34;76.39
9721;BME280;4899;42.644;23.366;2023-03-14T01:20:26;94358.09;;;1.28;78.56
9721;BME280;4899;42.644;23.366;2023-03-14T01:22:51;94357.09;;;1.29;77.57
9721;BME280;4899;42.644;23.366;2023-03-14T01:25:18;94353.56;;;1.30;77.80
9721;BME280;4899;42.644;23.366;2023-03-14T01:27:44;94342.84;;;1.23;79.01
9721;BME280;4899;42.644;23.366;2023-03-14T01:30:11;94333.22;;;1.20;77.01
9721;BME280;4899;42.644;23.366;2023-03-14T01:32:36;94333.72;;;1.22;77.30
9721;BME280;4899;42.644;23.366;2023-03-14T01:35:03;94343.91;;;1.27;77.95
9721;BME280;4899;42.644;23.366;2023-03-14T01:37:28;94341.38;;;1.27;78.34
9721;BME280;4899;42.644;23.366;2023-03-14T01:39:54;94337.56;;;1.25;79.07
9721;BME280;4899;42.644;23.366;2023-03-14T01:42:19;94346.69;;;1.26;80.19
9721;BME280;4899;42.644;23.366;2023-03-14T01:45:00;94330.94;;;1.23;80.29
9721;BME280;4899;42.644;23.366;2023-03-14T01:47:26;94332.72;;;1.23;79.46
9721;BME280;4899;42.644;23.366;2023-03-14T01:50:12;94334.47;;;1.17;86.53
9721;BME280;4899;42.644;23.366;2023-03-14T01:52:56;94334.97;;;1.14;84.41
9721;BME280;4899;42.644;23.366;2023-03-14T01:55:24;94316.44;;;1.09;81.65
9721;BME280;4899;42.644;23.366;2023-03-14T01:58:01;94327.84;;;1.11;82.71
9721;BME280;4899;42.644;23.366;2023-03-14T02:00:28;94324.53;;;1.06;83.39
9721;BME280;4899;42.644;23.366;2023-03-14T02:02:56;94326.50;;;0.99;85.94
9721;BME280;4899;42.644;23.366;2023-03-14T02:05:27;94319.13;;;0.92;88.37
9721;BME280;4899;42.644;23.366;2023-03-14T02:07:56;94324.94;;;0.92;85.53
9721;BME280;4899;42.644;23.366;2023-03-14T02:10:28;94325.44;;;0.89;86.91
9721;BME280;4899;42.644;23.366;2023-03-14T02:12:55;94312.47;;;0.81;89.08
9721;BME280;4899;42.644;23.366;2023-03-14T02:15:22;94319.34;;;0.85;93.40
9721;BME280;4899;42.644;23.366;2023-03-14T02:17:48;94314.28;;;0.85;93.24
9721;BME280;4899;42.644;23.366;2023-03-14T02:22:51;94304.41;;;0.84;95.52
9721;BME280;4899;42.644;23.366;2023-03-14T02:27:43;94315.84;;;0.97;94.96
9721;BME280;4899;42.644;23.366;2023-03-14T02:30:16;94304.72;;;0.98;92.98
9721;BME280;4899;42.644;23.366;2023-03-14T02:32:45;94316.44;;;1.04;91.88
9721;BME280;4899;42.644;23.366;2023-03-14T02:35:15;94316.19;;;1.05;91.77
9721;BME280;4899;42.644;23.366;2023-03-14T02:37:51;94312.38;;;1.08;91.22
9721;BME280;4899;42.644;23.366;2023-03-14T02:40:17;94292.06;;;0.98;91.86
9721;BME280;4899;42.644;23.366;2023-03-14T02:42:43;94309.09;;;1.07;91.84
9721;BME280;4899;42.644;23.366;2023-03-14T02:47:35;94323.00;;;1.00;94.44
9721;BME280;4899;42.644;23.366;2023-03-14T02:50:06;94329.50;;;0.90;95.22
9721;BME280;4899;42.644;23.366;2023-03-14T02:52:33;94298.47;;;0.73;94.19
9721;BME280;4899;42.644;23.366;2023-03-14T02:54:58;94324.66;;;0.89;92.41
9721;BME280;4899;42.644;23.366;2023-03-14T02:57:24;94321.66;;;0.92;90.50
9721;BME280;4899;42.644;23.366;2023-03-14T02:59:49;94329.00;;;0.93;90.26
9721;BME280;4899;42.644;23.366;2023-03-14T03:02:15;94329.31;;;1.02;91.46
9721;BME280;4899;42.644;23.366;2023-03-14T03:04:41;94331.28;;;0.95;89.96
9721;BME280;4899;42.644;23.366;2023-03-14T03:07:07;94322.94;;;0.95;90.58
9721;BME280;4899;42.644;23.366;2023-03-14T03:09:33;94325.47;;;0.95;90.73
9721;BME280;4899;42.644;23.366;2023-03-14T03:11:58;94321.09;;;0.85;90.42
9721;BME280;4899;42.644;23.366;2023-03-14T03:14:24;94326.69;;;0.87;90.90
9721;BME280;4899;42.644;23.366;2023-03-14T03:16:49;94319.06;;;0.82;93.40
9721;BME280;4899;42.644;23.366;2023-03-14T03:19:14;94317.03;;;0.79;94.82
9721;BME280;4899;42.644;23.366;2023-03-14T03:21:41;94312.38;;;0.71;96.98
9721;BME280;4899;42.644;23.366;2023-03-14T03:24:06;94320.03;;;0.76;94.87
9721;BME280;4899;42.644;23.366;2023-03-14T03:26:34;94317.72;;;0.74;95.12
9721;BME280;4899;42.644;23.366;2023-03-14T03:28:59;94318.22;;;0.71;95.13
9721;BME280;4899;42.644;23.366;2023-03-14T03:31:25;94318.22;;;0.71;95.53
9721;BME280;4899;42.644;23.366;2023-03-14T03:33:50;94310.59;;;0.66;94.30
9721;BME280;4899;42.644;23.366;2023-03-14T03:36:21;94313.38;;;0.65;97.05
9721;BME280;4899;42.644;23.366;2023-03-14T03:38:47;94301.97;;;0.62;96.87
9721;BME280;4899;42.644;23.366;2023-03-14T03:41:13;94301.47;;;0.65;98.49
9721;BME280;4899;42.644;23.366;2023-03-14T03:43:38;94302.97;;;0.61;98.69
9721;BME280;4899;42.644;23.366;2023-03-14T03:46:05;94323.25;;;0.66;97.22
9721;BME280;4899;42.644;23.366;2023-03-14T03:48:31;94307.00;;;0.57;97.11
9721;BME280;4899;42.644;23.366;2023-03-14T03:50:56;94303.91;;;0.50;97.70
9721;BME280;4899;42.644;23.366;2023-03-14T03:53:22;94315.84;;;0.54;97.38
9721;BME280;4899;42.644;23.366;2023-03-14T03:55:48;94315.25;;;0.47;96.84
9721;BME280;4899;42.644;23.366;2023-03-14T03:58:14;94329.16;;;0.45;98.00
9721;BME280;4899;42.644;23.366;2023-03-14T04:00:39;94330.59;;;0.36;99.00
9721;BME280;4899;42.644;23.366;2023-03-14T04:03:05;94327.03;;;0.32;99.84
9721;BME280;4899;42.644;23.366;2023-03-14T04:05:31;94331.31;;;0.31;100.00
9721;BME280;4899;42.644;23.366;2023-03-14T04:07:56;94319.31;;;0.21;100.00
9721;BME280;4899;42.644;23.366;2023-03-14T04:10:22;94334.59;;;0.32;100.00
9721;BME280;4899;42.644;23.366;2023-03-14T04:12:47;94326.50;;;0.29;100.00
9721;BME280;4899;42.644;23.366;2023-03-14T04:15:13;94332.59;;;0.34;100.00
9721;BME280;4899;42.644;23.366;2023-03-14T04:17:38;94319.44;;;0.32;100.00
9721;BME280;4899;42.644;23.366;2023-03-14T04:20:04;94323.00;;;0.36;100.00
9721;BME280;4899;42.644;23.366;2023-03-14T04:22:30;94309.84;;;0.34;100.00
9721;BME280;4899;42.644;23.366;2023-03-14T04:24:55;94301.72;;;0.32;100.00
9721;BME280;4899;42.644;23.366;2023-03-14T04:27:21;94306.31;;;0.35;100.00
9721;BME280;4899;42.644;23.366;2023-03-14T04:29:46;94303.50;;;0.31;100.00
9721;BME280;4899;42.644;23.366;2023-03-14T04:32:12;94290.34;;;0.29;100.00
9721;BME280;4899;42.644;23.366;2023-03-14T04:34:37;94295.19;;;0.36;100.00
9721;BME280;4899;42.644;23.366;2023-03-14T04:37:02;94293.94;;;0.38;100.00
9721;BME280;4899;42.644;23.366;2023-03-14T04:39:28;94284.53;;;0.34;100.00
9721;BME280;4899;42.644;23.366;2023-03-14T04:41:53;94287.34;;;0.37;100.00
9721;BME280;4899;42.644;23.366;2023-03-14T04:44:19;94286.88;;;0.40;100.00
9721;BME280;4899;42.644;23.366;2023-03-14T04:46:45;94275.44;;;0.33;100.00
9721;BME280;4899;42.644;23.366;2023-03-14T04:49:10;94273.91;;;0.32;100.00
9721;BME280;4899;42.644;23.366;2023-03-14T04:51:35;94280.25;;;0.34;100.00
9721;BME280;4899;42.644;23.366;2023-03-14T04:54:01;94276.47;;;0.37;100.00
9721;BME280;4899;42.644;23.366;2023-03-14T04:56:27;94264.78;;;0.30;100.00
9721;BME280;4899;42.644;23.366;2023-03-14T04:58:53;94275.94;;;0.35;100.00
9721;BME280;4899;42.644;23.366;2023-03-14T05:01:18;94268.38;;;0.35;100.00
9721;BME280;4899;42.644;23.366;2023-03-14T05:03:44;94271.69;;;0.40;100.00
9721;BME280;4899;42.644;23.366;2023-03-14T05:06:10;94271.97;;;0.44;100.00
9721;BME280;4899;42.644;23.366;2023-03-14T05:08:35;94270.44;;;0.43;100.00
9721;BME280;4899;42.644;23.366;2023-03-14T05:11:01;94262.34;;;0.41;100.00
9721;BME280;4899;42.644;23.366;2023-03-14T05:13:28;94275.06;;;0.51;100.00
9721;BME280;4899;42.644;23.366;2023-03-14T05:15:53;94266.41;;;0.47;100.00
9721;BME280;4899;42.644;23.366;2023-03-14T05:18:20;94267.75;;;0.54;100.00
9721;BME280;4899;42.644;23.366;2023-03-14T05:20:46;94253.81;;;0.52;100.00
9721;BME280;4899;42.644;23.366;2023-03-14T05:23:11;94280.72;;;0.63;100.00
9721;BME280;4899;42.644;23.366;2023-03-14T05:25:37;94266.28;;;0.64;100.00
9721;BME280;4899;42.644;23.366;2023-03-14T05:28:02;94272.66;;;0.71;100.00
9721;BME280;4899;42.644;23.366;2023-03-14T05:30:28;94273.25;;;0.83;99.83
9721;BME280;4899;42.644;23.366;2023-03-14T05:32:56;94261.34;;;0.84;100.00
9721;BME280;4899;42.644;23.366;2023-03-14T05:35:21;94274.34;;;0.98;99.54
9721;BME280;4899;42.644;23.366;2023-03-14T05:37:47;94263.25;;;1.04;98.07
9721;BME280;4899;42.644;23.366;2023-03-14T05:40:12;94264.28;;;1.13;97.90
9721;BME280;4899;42.644;23.366;2023-03-14T05:42:38;94256.47;;;1.19;97.77
9721;BME280;4899;42.644;23.366;2023-03-14T05:45:04;94262.88;;;1.32;97.45
9721;BME280;4899;42.644;23.366;2023-03-14T05:47:29;94258.81;;;1.36;96.01
9721;BME280;4899;42.644;23.366;2023-03-14T05:49:55;94274.34;;;1.55;97.10
9721;BME280;4899;42.644;23.366;2023-03-14T05:52:20;94257.63;;;1.59;96.60
9721;BME280;4899;42.644;23.366;2023-03-14T05:54:45;94262.22;;;1.67;94.27
9721;BME280;4899;42.644;23.366;2023-03-14T05:57:11;94270.88;;;1.81;93.11
9721;BME280;4899;42.644;23.366;2023-03-14T05:59:36;94263.53;;;1.80;92.19
9721;BME280;4899;42.644;23.366;2023-03-14T06:02:02;94270.63;;;1.88;91.81
9721;BME280;4899;42.644;23.366;2023-03-14T06:04:27;94269.38;;;1.91;91.49
9721;BME280;4899;42.644;23.366;2023-03-14T06:06:53;94270.88;;;1.92;91.63
9721;BME280;4899;42.644;23.366;2023-03-14T06:09:18;94268.59;;;1.95;91.31
9721;BME280;4899;42.644;23.366;2023-03-14T06:11:45;94270.63;;;1.98;93.10
9721;BME280;4899;42.644;23.366;2023-03-14T06:14:11;94269.16;;;2.02;92.98
9721;BME280;4899;42.644;23.366;2023-03-14T06:16:37;94266.34;;;2.09;92.58
9721;BME280;4899;42.644;23.366;2023-03-14T06:19:02;94264.06;;;2.12;93.89
9721;BME280;4899;42.644;23.366;2023-03-14T06:21:28;94257.22;;;2.13;93.65
9721;BME280;4899;42.644;23.366;2023-03-14T06:23:53;94264.84;;;2.18;92.96
9721;BME280;4899;42.644;23.366;2023-03-14T06:26:19;94267.63;;;2.22;93.13
9721;BME280;4899;42.644;23.366;2023-03-14T06:28:44;94256.97;;;2.20;93.52
9721;BME280;4899;42.644;23.366;2023-03-14T06:31:10;94264.09;;;2.33;93.47
9721;BME280;4899;42.644;23.366;2023-03-14T06:33:35;94262.06;;;2.40;92.86
9721;BME280;4899;42.644;23.366;2023-03-14T06:36:00;94265.63;;;2.49;93.47
9721;BME280;4899;42.644;23.366;2023-03-14T06:38:26;94268.66;;;2.61;92.12
9721;BME280;4899;42.644;23.366;2023-03-14T06:40:51;94273.47;;;2.78;89.03
9721;BME280;4899;42.644;23.366;2023-03-14T06:43:17;94269.63;;;2.86;89.74
9721;BME280;4899;42.644;23.366;2023-03-14T06:45:42;94261.50;;;2.99;87.67
9721;BME280;4899;42.644;23.366;2023-03-14T06:48:07;94255.09;;;3.12;85.08
9721;BME280;4899;42.644;23.366;2023-03-14T06:50:33;94254.81;;;3.23;84.36
9721;BME280;4899;42.644;23.366;2023-03-14T06:52:58;94254.25;;;3.36;83.22
9721;BME280;4899;42.644;23.366;2023-03-14T06:55:24;94259.28;;;3.47;82.28
9721;BME280;4899;42.644;23.366;2023-03-14T06:57:49;94246.31;;;3.53;81.53
9721;BME280;4899;42.644;23.366;2023-03-14T07:00:15;94247.28;;;3.62;80.97
9721;BME280;4899;42.644;23.366;2023-03-14T07:02:40;94243.69;;;3.68;80.89
9721;BME280;4899;42.644;23.366;2023-03-14T07:05:06;94243.91;;;3.77;78.70
9721;BME280;4899;42.644;23.366;2023-03-14T07:07:32;94242.81;;;3.88;77.20
9721;BME280;4899;42.644;23.366;2023-03-14T07:09:57;94235.63;;;3.95;76.68
9721;BME280;4899;42.644;23.366;2023-03-14T07:12:22;94223.94;;;3.94;75.96
9721;BME280;4899;42.644;23.366;2023-03-14T07:14:48;94229.47;;;4.07;73.97
9721;BME280;4899;42.644;23.366;2023-03-14T07:17:13;94228.84;;;4.20;73.55
9721;BME280;4899;42.644;23.366;2023-03-14T07:19:39;94222.97;;;4.24;72.56
9721;BME280;4899;42.644;23.366;2023-03-14T07:22:04;94231.56;;;4.33;73.54
9721;BME280;4899;42.644;23.366;2023-03-14T07:24:30;94219.09;;;4.32;72.64
9721;BME280;4899;42.644;23.366;2023-03-14T07:26:55;94230.00;;;4.38;72.16
9721;BME280;4899;42.644;23.366;2023-03-14T07:29:21;94233.75;;;4.45;71.54
9721;BME280;4899;42.644;23.366;2023-03-14T07:31:46;94227.59;;;4.51;71.23
9721;BME280;4899;42.644;23.366;2023-03-14T07:34:12;94214.53;;;4.58;70.18
9721;BME280;4899;42.644;23.366;2023-03-14T07:36:37;94218.28;;;4.66;68.59
9721;BME280;4899;42.644;23.366;2023-03-14T07:39:03;94226.34;;;4.78;67.28
9721;BME280;4899;42.644;23.366;2023-03-14T07:41:30;94216.16;;;4.78;66.82
9721;BME280;4899;42.644;23.366;2023-03-14T07:43:55;94213.53;;;4.83;66.36
9721;BME280;4899;42.644;23.366;2023-03-14T07:46:21;94202.31;;;4.84;65.64
9721;BME280;4899;42.644;23.366;2023-03-14T07:48:46;94209.34;;;4.97;64.75
9721;BME280;4899;42.644;23.366;2023-03-14T07:51:11;94205.63;;;5.08;64.50
9721;BME280;4899;42.644;23.366;2023-03-14T07:53:37;94205.09;;;5.11;64.89
9721;BME280;4899;42.644;23.366;2023-03-14T07:56:03;94207.00;;;5.24;64.16
9721;BME280;4899;42.644;23.366;2023-03-14T07:58:28;94208.16;;;5.32;63.80
9721;BME280;4899;42.644;23.366;2023-03-14T08:00:54;94211.88;;;5.40;63.25
9721;BME280;4899;42.644;23.366;2023-03-14T08:03:20;94217.63;;;5.50;62.71
9721;BME280;4899;42.644;23.366;2023-03-14T08:05:49;94208.13;;;5.56;61.95
9721;BME280;4899;42.644;23.366;2023-03-14T08:08:16;94203.72;;;5.62;61.65
9721;BME280;4899;42.644;23.366;2023-03-14T08:10:42;94206.34;;;5.75;60.95
9721;BME280;4899;42.644;23.366;2023-03-14T08:13:09;94205.63;;;5.88;60.57
9721;BME280;4899;42.644;23.366;2023-03-14T08:15:34;94198.47;;;5.91;60.18
9721;BME280;4899;42.644;23.366;2023-03-14T08:18:00;94209.53;;;6.05;59.72
9721;BME280;4899;42.644;23.366;2023-03-14T08:20:27;94203.16;;;6.21;59.61
9721;BME280;4899;42.644;23.366;2023-03-14T08:22:56;94198.91;;;6.30;58.93
9721;BME280;4899;42.644;23.366;2023-03-14T08:25:21;94209.94;;;6.44;58.19
9721;BME280;4899;42.644;23.366;2023-03-14T08:27:47;94212.41;;;6.50;58.34
9721;BME280;4899;42.644;23.366;2023-03-14T08:30:15;94202.00;;;6.60;58.20
9721;BME280;4899;42.644;23.366;2023-03-14T08:32:40;94199.56;;;6.68;57.68
9721;BME280;4899;42.644;23.366;2023-03-14T08:35:07;94203.19;;;6.81;57.29
9721;BME280;4899;42.644;23.366;2023-03-14T08:37:33;94198.63;;;6.92;57.19
9721;BME280;4899;42.644;23.366;2023-03-14T08:39:59;94187.47;;;6.88;56.58
9721;BME280;4899;42.644;23.366;2023-03-14T08:42:24;94184.03;;;6.92;56.25
9721;BME280;4899;42.644;23.366;2023-03-14T08:44:51;94183.50;;;7.09;56.04
9721;BME280;4899;42.644;23.366;2023-03-14T08:47:16;94181.41;;;7.25;55.93
9721;BME280;4899;42.644;23.366;2023-03-14T08:49:43;94183.06;;;7.43;54.92
9721;BME280;4899;42.644;23.366;2023-03-14T08:52:08;94184.38;;;7.54;54.96
9721;BME280;4899;42.644;23.366;2023-03-14T08:54:34;94165.19;;;7.65;55.17
9721;BME280;4899;42.644;23.366;2023-03-14T08:57:00;94169.28;;;7.89;55.05
9721;BME280;4899;42.644;23.366;2023-03-14T08:59:26;94164.41;;;8.01;53.75
9721;BME280;4899;42.644;23.366;2023-03-14T09:01:51;94157.19;;;8.03;53.59
9721;BME280;4899;42.644;23.366;2023-03-14T09:04:16;94140.19;;;8.07;52.85
9721;BME280;4899;42.644;23.366;2023-03-14T09:06:42;94150.88;;;8.31;53.25
9721;BME280;4899;42.644;23.366;2023-03-14T09:09:08;94156.16;;;8.57;52.75
9721;BME280;4899;42.644;23.366;2023-03-14T09:11:33;94143.56;;;8.70;51.97
9721;BME280;4899;42.644;23.366;2023-03-14T09:13:59;94147.97;;;8.86;51.56
9721;BME280;4899;42.644;23.366;2023-03-14T09:16:25;94146.69;;;8.98;51.15
9721;BME280;4899;42.644;23.366;2023-03-14T09:18:50;94135.22;;;9.04;50.96
9721;BME280;4899;42.644;23.366;2023-03-14T09:21:19;94133.91;;;9.32;50.40
9721;BME280;4899;42.644;23.366;2023-03-14T09:23:46;94131.38;;;9.49;50.53
9721;BME280;4899;42.644;23.366;2023-03-14T09:26:12;94123.81;;;9.79;50.06
9721;BME280;4899;42.644;23.366;2023-03-14T09:28:37;94118.06;;;9.99;49.91
9721;BME280;4899;42.644;23.366;2023-03-14T09:31:07;94114.09;;;10.10;49.07
9721;BME280;4899;42.644;23.366;2023-03-14T09:33:33;94110.19;;;10.22;48.47
9721;BME280;4899;42.644;23.366;2023-03-14T09:35:59;94108.16;;;10.36;48.12
9721;BME280;4899;42.644;23.366;2023-03-14T09:38:25;94105.28;;;10.46;47.94
9721;BME280;4899;42.644;23.366;2023-03-14T09:40:50;94097.38;;;10.51;47.89
9721;BME280;4899;42.644;23.366;2023-03-14T09:43:16;94099.88;;;10.68;47.25
9721;BME280;4899;42.644;23.366;2023-03-14T09:45:44;94090.69;;;10.88;47.16
9721;BME280;4899;42.644;23.366;2023-03-14T09:48:20;94084.50;;;11.10;46.94
9721;BME280;4899;42.644;23.366;2023-03-14T09:50:50;94056.47;;;11.17;46.25
9721;BME280;4899;42.644;23.366;2023-03-14T09:53:25;94067.50;;;11.38;46.46
9721;BME280;4899;42.644;23.366;2023-03-14T09:55:52;94055.56;;;11.55;45.92
9721;BME280;4899;42.644;23.366;2023-03-14T09:58:23;94055.09;;;11.74;45.81
9721;BME280;4899;42.644;23.366;2023-03-14T10:00:50;94059.94;;;11.96;45.60
9721;BME280;4899;42.644;23.366;2023-03-14T10:03:31;94059.63;;;12.10;45.33
9721;BME280;4899;42.644;23.366;2023-03-14T10:05:58;94044.50;;;12.20;45.59
9721;BME280;4899;42.644;23.366;2023-03-14T10:08:23;94044.53;;;12.45;45.67
9721;BME280;4899;42.644;23.366;2023-03-14T10:10:49;94039.59;;;12.64;46.00
9721;BME280;4899;42.644;23.366;2023-03-14T10:13:25;94043.00;;;12.92;44.86
9721;BME280;4899;42.644;23.366;2023-03-14T10:15:54;94022.78;;;12.82;45.43
9721;BME280;4899;42.644;23.366;2023-03-14T10:18:22;94015.56;;;12.88;45.27
9721;BME280;4899;42.644;23.366;2023-03-14T10:20:49;94026.72;;;13.16;44.66
9721;BME280;4899;42.644;23.366;2023-03-14T10:23:27;94009.94;;;13.22;44.36
9721;BME280;4899;42.644;23.366;2023-03-14T10:26:05;93987.63;;;13.30;42.61
9721;BME280;4899;42.644;23.366;2023-03-14T10:28:34;93991.19;;;13.53;43.85
9721;BME280;4899;42.644;23.366;2023-03-14T10:31:02;93987.72;;;13.77;44.09
9721;BME280;4899;42.644;23.366;2023-03-14T10:33:33;93981.81;;;14.08;43.16
9721;BME280;4899;42.644;23.366;2023-03-14T10:36:01;93968.88;;;14.24;43.02
9721;BME280;4899;42.644;23.366;2023-03-14T10:38:29;93965.44;;;14.36;43.38
9721;BME280;4899;42.644;23.366;2023-03-14T10:40:56;93957.28;;;14.50;43.07
9721;BME280;4899;42.644;23.366;2023-03-14T10:46:14;93915.38;;;14.44;39.92
9721;BME280;4899;42.644;23.366;2023-03-14T10:48:40;93926.63;;;14.52;42.39
9721;BME280;4899;42.644;23.366;2023-03-14T10:51:11;93925.56;;;14.72;42.26
9721;BME280;4899;42.644;23.366;2023-03-14T10:56:14;93901.59;;;15.14;41.21
9721;BME280;4899;42.644;23.366;2023-03-14T10:58:46;93888.38;;;14.99;41.58
9721;BME280;4899;42.644;23.366;2023-03-14T11:01:29;93876.63;;;15.05;39.53
9721;BME280;4899;42.644;23.366;2023-03-14T11:04:10;93878.38;;;15.21;40.08
9721;BME280;4899;42.644;23.366;2023-03-14T11:11:39;93862.56;;;15.49;40.80
9721;BME280;4899;42.644;23.366;2023-03-14T11:16:59;93846.94;;;15.64;40.46
9721;BME280;4899;42.644;23.366;2023-03-14T11:19:35;93818.78;;;15.44;38.81
9721;BME280;4899;42.644;23.366;2023-03-14T11:22:34;93805.59;;;15.52;37.11
9721;BME280;4899;42.644;23.366;2023-03-14T11:25:20;93792.59;;;15.72;37.88
9721;BME280;4899;42.644;23.366;2023-03-14T11:28:20;93778.53;;;16.03;37.44
9721;BME280;4899;42.644;23.366;2023-03-14T11:30:57;93761.63;;;16.79;36.88
9721;BME280;4899;42.644;23.366;2023-03-14T11:33:28;93744.69;;;17.37;37.52
9721;BME280;4899;42.644;23.366;2023-03-14T11:36:07;93732.25;;;18.54;36.93
9721;BME280;4899;42.644;23.366;2023-03-14T11:38:50;93686.16;;;19.65;32.98
9721;BME280;4899;42.644;23.366;2023-03-14T11:41:45;93671.94;;;20.64;33.84
9721;BME280;4899;42.644;23.366;2023-03-14T11:46:59;93634.59;;;22.18;33.69
9721;BME280;4899;42.644;23.366;2023-03-14T11:52:09;93596.97;;;23.88;31.71
9721;BME280;4899;42.644;23.366;2023-03-14T11:54:46;93565.88;;;24.55;29.70
9721;BME280;4899;42.644;23.366;2023-03-14T11:57:19;93546.88;;;25.25;30.07
9721;BME280;4899;42.644;23.366;2023-03-14T12:02:39;93468.16;;;25.94;24.67
9721;BME280;4899;42.644;23.366;2023-03-14T12:11:14;93449.09;;;25.77;25.22
9721;BME280;4899;42.644;23.366;2023-03-14T12:13:41;93456.78;;;25.97;28.08
9721;BME280;4899;42.644;23.366;2023-03-14T12:18:50;93440.31;;;26.19;27.51
9721;BME280;4899;42.644;23.366;2023-03-14T12:21:17;93422.09;;;26.46;26.55
9721;BME280;4899;42.644;23.366;2023-03-14T12:23:47;93416.28;;;26.51;26.67
9721;BME280;4899;42.644;23.366;2023-03-14T12:26:20;93406.28;;;26.90;24.42
9721;BME280;4899;42.644;23.366;2023-03-14T12:37:04;93355.56;;;27.57;23.07
9721;BME280;4899;42.644;23.366;2023-03-14T12:49:49;93420.72;;;27.51;22.41
9721;BME280;4899;42.644;23.366;2023-03-14T12:52:20;93442.25;;;26.53;24.08
9721;BME280;4899;42.644;23.366;2023-03-14T12:57:45;93421.56;;;25.91;22.68
9721;BME280;4899;42.644;23.366;2023-03-14T13:00:21;93427.69;;;26.48;23.85
9721;BME280;4899;42.644;23.366;2023-03-14T13:02:48;93441.41;;;27.21;23.96
9721;BME280;4899;42.644;23.366;2023-03-14T13:13:16;93386.13;;;28.80;19.99
9721;BME280;4899;42.644;23.366;2023-03-14T13:15:42;93403.19;;;29.07;22.68
9721;BME280;4899;42.644;23.366;2023-03-14T13:18:36;93370.03;;;29.87;19.11
9721;BME280;4899;42.644;23.366;2023-03-14T13:21:14;93375.16;;;30.38;19.17
9721;BME280;4899;42.644;23.366;2023-03-14T13:23:57;93381.06;;;30.57;20.83
9721;BME280;4899;42.644;23.366;2023-03-14T13:26:31;93383.38;;;30.64;21.13
9721;BME280;4899;42.644;23.366;2023-03-14T13:28:58;93373.59;;;30.70;21.04
9721;BME280;4899;42.644;23.366;2023-03-14T13:31:24;93378.84;;;31.09;20.57
9721;BME280;4899;42.644;23.366;2023-03-14T13:34:06;93357.59;;;30.41;18.62
9721;BME280;4899;42.644;23.366;2023-03-14T13:36:35;93363.94;;;30.19;20.70
9721;BME280;4899;42.644;23.366;2023-03-14T13:39:01;93366.75;;;29.92;20.84
9721;BME280;4899;42.644;23.366;2023-03-14T13:41:28;93352.66;;;29.86;20.80
9721;BME280;4899;42.644;23.366;2023-03-14T13:44:06;93350.66;;;29.48;19.10
9721;BME280;4899;42.644;23.366;2023-03-14T13:46:36;93365.91;;;29.62;20.61
9721;BME280;4899;42.644;23.366;2023-03-14T13:49:09;93357.72;;;30.22;20.64
9721;BME280;4899;42.644;23.366;2023-03-14T13:51:38;93355.38;;;30.78;20.14
9721;BME280;4899;42.644;23.366;2023-03-14T13:54:14;93347.78;;;30.85;18.62
9721;BME280;4899;42.644;23.366;2023-03-14T13:56:39;93351.88;;;31.66;19.99
9721;BME280;4899;42.644;23.366;2023-03-14T13:59:33;93335.22;;;31.30;17.45
9721;BME280;4899;42.644;23.366;2023-03-14T14:02:14;93330.75;;;30.77;17.96
9721;BME280;4899;42.644;23.366;2023-03-14T14:04:40;93345.28;;;30.52;19.96
9721;BME280;4899;42.644;23.366;2023-03-14T14:07:08;93343.72;;;29.98;19.94
9721;BME280;4899;42.644;23.366;2023-03-14T14:09:43;93338.56;;;29.80;19.09
9721;BME280;4899;42.644;23.366;2023-03-14T14:14:49;93344.41;;;28.57;20.54
9721;BME280;4899;42.644;23.366;2023-03-14T14:17:20;93344.56;;;28.54;20.59
9721;BME280;4899;42.644;23.366;2023-03-14T14:19:47;93332.94;;;28.51;20.60
9721;BME280;4899;42.644;23.366;2023-03-14T14:22:13;93326.88;;;28.23;20.93
9721;BME280;4899;42.644;23.366;2023-03-14T14:24:39;93316.75;;;28.12;20.32
9721;BME280;4899;42.644;23.366;2023-03-14T14:27:15;93316.63;;;28.34;19.72
9721;BME280;4899;42.644;23.366;2023-03-14T14:29:42;93314.25;;;28.64;20.41